createdAt,value
2017-11-26T00:00:59.010Z,98016.53
2017-11-26T00:02:03.912Z,98012.35
2017-11-26T00:03:08.752Z,98009.13
2017-11-26T00:04:13.766Z,98008.83
2017-11-26T00:05:18.587Z,98017.92
2017-11-26T00:06:23.370Z,98007.16
2017-11-26T00:07:28.551Z,98018.14
2017-11-26T00:08:33.434Z,98017.14
2017-11-26T00:09:38.171Z,98017.37
2017-11-26T00:10:42.917Z,98017.27
2017-11-26T00:11:47.943Z,98014.23
2017-11-26T00:12:52.804Z,98019.47
2017-11-26T00:13:58.307Z,98018.02
2017-11-26T00:15:03.105Z,98020.96
2017-11-26T00:16:08.184Z,98016.12
2017-11-26T00:17:13.017Z,98017.15
2017-11-26T00:18:18.061Z,98023.91
2017-11-26T00:19:23.210Z,98017.84
2017-11-26T00:20:28.036Z,98027.46
2017-11-26T00:21:32.825Z,98023.91
2017-11-26T00:22:37.740Z,98021.40
2017-11-26T00:23:42.656Z,98021.14
2017-11-26T00:24:47.379Z,98020.44
2017-11-26T00:25:52.582Z,98029.52
2017-11-26T00:26:57.482Z,98031.12
2017-11-26T00:28:02.499Z,98028.50
2017-11-26T00:29:07.504Z,98026.06
2017-11-26T00:30:12.187Z,98020.45
2017-11-26T00:31:17.128Z,98023.09
2017-11-26T00:32:22.298Z,98029.95
2017-11-26T00:33:26.963Z,98030.06
2017-11-26T00:34:31.874Z,98031.09
2017-11-26T00:35:36.871Z,98036.44
2017-11-26T00:36:41.809Z,98028.97
2017-11-26T00:37:46.769Z,98027.92
2017-11-26T00:38:51.758Z,98015.66
2017-11-26T00:39:56.546Z,98019.96
2017-11-26T00:41:01.505Z,98015.48
2017-11-26T00:42:06.411Z,98032.16
2017-11-26T00:43:11.427Z,98025.19
2017-11-26T00:44:16.347Z,98041.83
2017-11-26T00:45:21.449Z,98029.58
2017-11-26T00:46:26.967Z,98013.48
2017-11-26T00:47:31.715Z,98031.69
2017-11-26T00:48:36.454Z,98022.64
2017-11-26T00:49:41.225Z,98039.36
2017-11-26T00:50:46.193Z,98027.46
2017-11-26T00:51:51.194Z,98035.02
2017-11-26T00:52:55.874Z,98028.09
2017-11-26T00:54:00.721Z,98038.78
2017-11-26T00:55:05.570Z,98030.30
2017-11-26T00:56:10.270Z,98027.66
2017-11-26T00:57:14.931Z,98028.47
2017-11-26T00:58:19.864Z,98044.33
2017-11-26T00:59:24.785Z,98032.39
2017-11-26T01:00:29.659Z,98025.39
2017-11-26T01:01:34.399Z,98036.79
2017-11-26T01:02:39.333Z,98035.80
2017-11-26T01:03:44.068Z,98036.08
2017-11-26T01:04:49.164Z,98032.38
2017-11-26T01:05:53.904Z,98048.27
2017-11-26T01:06:58.561Z,98045.95
2017-11-26T01:08:03.491Z,98042.13
2017-11-26T01:09:08.190Z,98044.46
2017-11-26T01:10:12.904Z,98041.13
2017-11-26T01:11:18.087Z,98043.42
2017-11-26T01:12:22.814Z,98049.84
2017-11-26T01:13:27.649Z,98050.61
2017-11-26T01:14:32.449Z,98066.02
2017-11-26T01:15:37.255Z,98057.61
2017-11-26T01:16:42.370Z,98051.53
2017-11-26T01:17:47.458Z,98056.13
2017-11-26T01:18:52.463Z,98059.18
2017-11-26T01:19:57.393Z,98064.86
2017-11-26T01:21:02.224Z,98066.92
2017-11-26T01:22:07.401Z,98063.84
2017-11-26T01:23:12.350Z,98067.63
2017-11-26T01:24:17.157Z,98071.52
2017-11-26T01:25:22.214Z,98061.89
2017-11-26T01:26:26.999Z,98065.03
2017-11-26T01:27:31.758Z,98070.34
2017-11-26T01:28:37.638Z,98071.91
2017-11-26T01:29:43.394Z,98072.85
2017-11-26T01:30:48.637Z,98068.88
2017-11-26T01:31:53.368Z,98067.51
2017-11-26T01:32:58.116Z,98067.94
2017-11-26T01:34:03.003Z,98070.58
2017-11-26T01:35:07.946Z,98071.63
2017-11-26T01:36:13.225Z,98074.90
2017-11-26T01:37:18.030Z,98066.45
2017-11-26T01:38:22.834Z,98063.42
2017-11-26T01:39:27.642Z,98066.48
2017-11-26T01:40:32.704Z,98076.50
2017-11-26T01:41:37.521Z,98074.31
2017-11-26T01:42:42.997Z,98078.88
2017-11-26T01:43:48.326Z,98079.93
2017-11-26T01:44:53.441Z,98080.02
2017-11-26T01:45:58.172Z,98078.13
2017-11-26T01:47:03.377Z,98070.36
2017-11-26T01:48:08.377Z,98077.06
2017-11-26T01:49:13.672Z,98072.37
2017-11-26T01:50:18.506Z,98079.09
2017-11-26T01:51:23.343Z,98076.12
2017-11-26T01:52:28.853Z,98076.94
2017-11-26T01:53:33.816Z,98082.63
2017-11-26T01:54:38.675Z,98076.48
2017-11-26T01:55:43.827Z,98076.46
2017-11-26T01:56:48.427Z,98065.02
2017-11-26T01:57:53.023Z,98079.63
2017-11-26T01:58:57.806Z,98066.38
2017-11-26T02:00:02.537Z,98076.34
2017-11-26T02:01:07.345Z,98074.66
2017-11-26T02:02:12.503Z,98077.45
2017-11-26T02:03:17.579Z,98070.52
2017-11-26T02:04:22.597Z,98080.55
2017-11-26T02:05:27.990Z,98067.91
2017-11-26T02:06:32.948Z,98073.39
2017-11-26T02:07:37.893Z,98074.36
2017-11-26T02:08:43.084Z,98067.38
2017-11-26T02:09:47.908Z,98069.70
2017-11-26T02:10:52.841Z,98069.14
2017-11-26T02:11:57.580Z,98070.39
2017-11-26T02:13:02.301Z,98071.05
2017-11-26T02:14:07.149Z,98073.00
2017-11-26T02:15:12.191Z,98072.08
2017-11-26T02:16:16.956Z,98059.67
2017-11-26T02:17:21.767Z,98066.72
2017-11-26T02:18:26.590Z,98072.67
2017-11-26T02:19:31.549Z,98075.14
2017-11-26T02:20:36.413Z,98071.08
2017-11-26T02:21:41.536Z,98075.25
2017-11-26T02:22:46.472Z,98075.86
2017-11-26T02:23:57.123Z,98073.00
2017-11-26T02:25:02.048Z,98072.83
2017-11-26T02:26:07.135Z,98074.90
2017-11-26T02:27:11.841Z,98073.34
2017-11-26T02:28:16.842Z,98068.62
2017-11-26T02:29:21.599Z,98077.23
2017-11-26T02:30:26.539Z,98069.63
2017-11-26T02:31:35.474Z,98081.70
2017-11-26T02:34:47.683Z,98079.28
2017-11-26T02:35:56.713Z,98087.75
2017-11-26T02:37:01.496Z,98081.08
2017-11-26T02:38:06.251Z,98073.19
2017-11-26T02:39:11.506Z,98081.58
2017-11-26T02:40:16.299Z,98094.70
2017-11-26T02:41:21.391Z,98082.85
2017-11-26T02:42:26.132Z,98077.45
2017-11-26T02:43:30.918Z,98070.97
2017-11-26T02:44:35.657Z,98083.84
2017-11-26T02:45:40.411Z,98085.73
2017-11-26T02:46:45.127Z,98086.64
2017-11-26T02:47:50.137Z,98080.63
2017-11-26T02:48:54.736Z,98084.62
2017-11-26T02:49:59.330Z,98088.32
2017-11-26T02:51:04.102Z,98086.99
2017-11-26T02:52:08.825Z,98095.03
2017-11-26T02:53:13.548Z,98092.72
2017-11-26T02:54:19.517Z,98091.25
2017-11-26T02:55:24.207Z,98091.19
2017-11-26T02:56:28.994Z,98084.97
2017-11-26T02:57:33.659Z,98086.09
2017-11-26T02:58:38.309Z,98101.28
2017-11-26T02:59:42.984Z,98088.53
2017-11-26T03:00:47.909Z,98089.72
2017-11-26T03:01:52.554Z,98098.94
2017-11-26T03:02:57.264Z,98092.83
2017-11-26T03:04:01.941Z,98094.47
2017-11-26T03:05:06.625Z,98090.36
2017-11-26T03:06:11.243Z,98094.50
2017-11-26T03:07:16.153Z,98093.88
2017-11-26T03:08:20.788Z,98090.14
2017-11-26T03:09:25.406Z,98089.73
2017-11-26T03:10:30.040Z,98086.20
2017-11-26T03:11:34.793Z,98095.59
2017-11-26T03:12:39.433Z,98093.16
2017-11-26T03:13:44.452Z,98095.64
2017-11-26T03:14:49.118Z,98097.58
2017-11-26T03:15:53.784Z,98105.81
2017-11-26T03:16:58.431Z,98100.20
2017-11-26T03:18:04.080Z,98097.78
2017-11-26T03:19:08.813Z,98097.08
2017-11-26T03:20:13.752Z,98101.42
2017-11-26T03:21:18.458Z,98104.28
2017-11-26T03:22:23.160Z,98103.52
2017-11-26T03:23:27.793Z,98091.48
2017-11-26T03:24:32.450Z,98094.58
2017-11-26T03:25:37.116Z,98104.47
2017-11-26T03:26:42.193Z,98104.11
2017-11-26T03:27:47.058Z,98103.05
2017-11-26T03:28:51.837Z,98107.73
2017-11-26T03:29:56.503Z,98100.04
2017-11-26T03:31:01.253Z,98085.66
2017-11-26T03:32:05.948Z,98097.14
2017-11-26T03:33:11.003Z,98097.88
2017-11-26T03:34:15.645Z,98098.80
2017-11-26T03:35:20.397Z,98105.58
2017-11-26T03:36:25.151Z,98096.13
2017-11-26T03:37:29.866Z,98103.67
2017-11-26T03:38:34.765Z,98098.96
2017-11-26T03:39:39.943Z,98098.55
2017-11-26T03:40:44.784Z,98097.58
2017-11-26T03:41:49.654Z,98088.91
2017-11-26T03:42:54.406Z,98101.88
2017-11-26T03:43:59.123Z,98095.45
2017-11-26T03:45:03.938Z,98102.52
2017-11-26T03:46:08.932Z,98097.56
2017-11-26T03:47:13.673Z,98101.58
2017-11-26T03:48:18.387Z,98099.45
2017-11-26T03:49:23.082Z,98106.95
2017-11-26T03:50:27.786Z,98099.55
2017-11-26T03:51:32.433Z,98102.56
2017-11-26T03:52:37.335Z,98099.77
2017-11-26T03:53:41.958Z,98097.68
2017-11-26T03:54:46.647Z,98095.88
2017-11-26T03:55:51.313Z,98102.52
2017-11-26T03:56:55.998Z,98106.11
2017-11-26T03:58:00.761Z,98112.51
2017-11-26T03:59:05.791Z,98100.67
2017-11-26T04:00:10.527Z,98103.57
2017-11-26T04:01:15.215Z,98094.11
2017-11-26T04:02:19.974Z,98115.00
2017-11-26T04:03:24.697Z,98103.45
2017-11-26T04:04:29.453Z,98106.99
2017-11-26T04:05:34.525Z,98109.21
2017-11-26T04:06:39.244Z,98110.26
2017-11-26T04:07:43.950Z,98111.13
2017-11-26T04:08:48.726Z,98104.05
2017-11-26T04:09:53.477Z,98107.05
2017-11-26T04:10:58.207Z,98106.25
2017-11-26T04:12:03.284Z,98117.59
2017-11-26T04:13:08.016Z,98096.77
2017-11-26T04:14:12.734Z,98116.58
2017-11-26T04:15:17.461Z,98121.59
2017-11-26T04:16:22.225Z,98109.25
2017-11-26T04:17:26.957Z,98106.37
2017-11-26T04:18:31.936Z,98117.56
2017-11-26T04:19:36.705Z,98106.35
2017-11-26T04:20:41.424Z,98111.11
2017-11-26T04:21:46.203Z,98110.91
2017-11-26T04:22:50.980Z,98100.81
2017-11-26T04:23:56.306Z,98114.42
2017-11-26T04:25:02.158Z,98108.57
2017-11-26T04:26:06.885Z,98110.39
2017-11-26T04:27:11.664Z,98096.59
2017-11-26T04:28:16.444Z,98101.37
2017-11-26T04:29:21.214Z,98106.54
2017-11-26T04:30:25.939Z,98104.66
2017-11-26T04:31:30.961Z,98102.65
2017-11-26T04:32:35.735Z,98094.34
2017-11-26T04:33:40.458Z,98103.08
2017-11-26T04:34:45.151Z,98107.46
2017-11-26T04:35:49.887Z,98102.23
2017-11-26T04:36:54.683Z,98103.58
2017-11-26T04:37:59.740Z,98096.98
2017-11-26T04:39:04.551Z,98106.84
2017-11-26T04:40:09.313Z,98100.97
2017-11-26T04:41:14.137Z,98103.92
2017-11-26T04:42:18.961Z,98103.98
2017-11-26T04:43:23.709Z,98085.03
2017-11-26T04:44:28.737Z,98091.94
2017-11-26T04:45:33.428Z,98090.86
2017-11-26T04:46:38.184Z,98092.04
2017-11-26T04:47:42.997Z,98104.06
2017-11-26T04:48:47.736Z,98103.37
2017-11-26T04:49:52.542Z,98106.60
2017-11-26T04:50:57.326Z,98098.70
2017-11-26T04:52:02.068Z,98102.81
2017-11-26T04:53:06.804Z,98105.41
2017-11-26T04:54:11.542Z,98101.00
2017-11-26T04:55:16.188Z,98094.17
2017-11-26T04:56:20.827Z,98090.79
2017-11-26T04:57:25.831Z,98096.86
2017-11-26T04:58:30.490Z,98104.70
2017-11-26T04:59:35.179Z,98099.74
2017-11-26T05:15:21.555Z,98103.92
2017-11-26T05:16:26.343Z,98107.66
2017-11-26T05:17:31.070Z,98107.02
2017-11-26T05:18:35.820Z,98107.99
2017-11-26T05:19:40.601Z,98112.13
2017-11-26T05:20:45.765Z,98108.92
2017-11-26T05:21:50.544Z,98107.84
2017-11-26T05:22:55.308Z,98101.09
2017-11-26T05:24:00.054Z,98101.73
2017-11-26T05:25:04.836Z,98111.73
2017-11-26T05:26:09.598Z,98106.40
2017-11-26T05:27:14.666Z,98116.66
2017-11-26T05:28:19.372Z,98116.27
2017-11-26T05:29:24.127Z,98112.61
2017-11-26T05:30:28.904Z,98119.16
2017-11-26T05:31:33.657Z,98120.13
2017-11-26T05:32:38.383Z,98115.11
2017-11-26T05:33:43.569Z,98122.83
2017-11-26T05:34:48.448Z,98128.02
2017-11-26T05:35:53.191Z,98122.44
2017-11-26T05:36:57.976Z,98119.42
2017-11-26T05:38:02.830Z,98126.56
2017-11-26T05:39:07.747Z,98121.30
2017-11-26T05:40:13.741Z,98124.94
2017-11-26T05:41:18.506Z,98110.85
2017-11-26T05:42:23.272Z,98121.00
2017-11-26T05:43:28.039Z,98124.39
2017-11-26T05:44:32.808Z,98124.99
2017-11-26T05:45:37.665Z,98127.13
2017-11-26T05:46:42.720Z,98124.03
2017-11-26T05:47:47.937Z,98124.57
2017-11-26T05:48:52.546Z,98125.33
2017-11-26T05:49:57.243Z,98128.22
2017-11-26T05:51:01.765Z,98127.73
2017-11-26T05:52:06.286Z,98124.41
2017-11-26T05:53:11.183Z,98125.42
2017-11-26T05:54:15.764Z,98127.56
2017-11-26T05:55:20.900Z,98128.97
2017-11-26T05:56:25.410Z,98131.17
2017-11-26T05:57:30.023Z,98135.61
2017-11-26T05:58:34.717Z,98135.02
2017-11-26T05:59:39.838Z,98132.55
2017-11-26T06:00:44.814Z,98131.83
2017-11-26T06:01:49.528Z,98123.63
2017-11-26T06:05:44.671Z,98138.03
2017-11-26T06:06:49.134Z,98138.39
2017-11-26T06:07:53.576Z,98139.62
2017-11-26T06:08:57.984Z,98140.41
2017-11-26T06:10:02.651Z,98142.11
2017-11-26T06:11:07.193Z,98145.80
2017-11-26T06:12:12.256Z,98149.72
2017-11-26T06:13:16.863Z,98142.41
2017-11-26T06:14:21.454Z,98149.94
2017-11-26T06:15:26.105Z,98147.13
2017-11-26T06:16:30.769Z,98148.05
2017-11-26T06:17:35.428Z,98145.52
2017-11-26T06:18:40.620Z,98153.24
2017-11-26T06:19:45.147Z,98148.66
2017-11-26T06:20:49.821Z,98147.58
2017-11-26T06:21:54.485Z,98151.59
2017-11-26T06:22:59.093Z,98144.13
2017-11-26T06:24:03.649Z,98159.59
2017-11-26T06:25:08.659Z,98144.84
2017-11-26T06:26:13.277Z,98141.08
2017-11-26T06:27:18.075Z,98149.69
2017-11-26T06:28:22.732Z,98130.07
2017-11-26T06:29:27.385Z,98135.22
2017-11-26T06:30:32.046Z,98154.14
2017-11-26T06:31:37.110Z,98154.96
2017-11-26T06:32:41.850Z,98147.92
2017-11-26T06:33:46.577Z,98153.00
2017-11-26T06:34:51.242Z,98151.58
2017-11-26T06:35:55.940Z,98155.71
2017-11-26T06:37:00.673Z,98148.25
2017-11-26T06:38:06.005Z,98157.70
2017-11-26T06:39:10.763Z,98155.41
2017-11-26T06:40:15.566Z,98161.57
2017-11-26T06:41:20.460Z,98157.36
2017-11-26T06:42:25.261Z,98159.52
2017-11-26T06:43:29.983Z,98157.26
2017-11-26T06:44:35.322Z,98154.78
2017-11-26T06:45:39.953Z,98156.66
2017-11-26T06:46:44.821Z,98160.99
2017-11-26T06:47:49.528Z,98152.87
2017-11-26T06:48:54.230Z,98154.73
2017-11-26T06:49:58.912Z,98158.45
2017-11-26T06:51:04.071Z,98160.06
2017-11-26T06:52:08.775Z,98164.06
2017-11-26T06:53:13.435Z,98170.89
2017-11-26T06:54:18.179Z,98172.33
2017-11-26T06:55:22.923Z,98170.98
2017-11-26T06:56:27.626Z,98170.19
2017-11-26T06:57:32.863Z,98175.55
2017-11-26T06:58:37.526Z,98175.77
2017-11-26T06:59:42.090Z,98176.91
2017-11-26T07:00:46.608Z,98184.20
2017-11-26T07:01:51.368Z,98173.55
2017-11-26T07:02:56.010Z,98165.22
2017-11-26T07:04:01.049Z,98175.49
2017-11-26T07:05:05.754Z,98162.80
2017-11-26T07:06:10.430Z,98165.66
2017-11-26T07:07:15.121Z,98174.25
2017-11-26T07:08:19.870Z,98176.30
2017-11-26T07:09:24.547Z,98180.13
2017-11-26T07:10:29.532Z,98182.17
2017-11-26T07:11:34.609Z,98181.16
2017-11-26T07:12:39.502Z,98180.00
2017-11-26T07:13:44.344Z,98179.89
2017-11-26T07:14:49.103Z,98184.56
2017-11-26T07:15:53.900Z,98188.71
2017-11-26T07:16:59.151Z,98190.05
2017-11-26T07:18:04.117Z,98185.36
2017-11-26T07:19:08.898Z,98190.77
2017-11-26T07:20:13.730Z,98183.48
2017-11-26T07:21:19.162Z,98168.34
2017-11-26T07:22:25.184Z,98184.59
2017-11-26T07:23:30.396Z,98183.92
2017-11-26T07:24:35.208Z,98177.80
2017-11-26T07:25:39.987Z,98183.74
2017-11-26T07:26:44.771Z,98181.97
2017-11-26T07:27:49.547Z,98174.53
2017-11-26T07:28:54.320Z,98175.92
2017-11-26T07:29:59.458Z,98179.94
2017-11-26T07:31:04.271Z,98181.45
2017-11-26T07:32:09.027Z,98183.22
2017-11-26T07:33:13.726Z,98177.40
2017-11-26T07:34:18.536Z,98184.48
2017-11-26T07:35:23.395Z,98173.19
2017-11-26T07:36:28.077Z,98184.59
2017-11-26T07:37:32.921Z,98188.97
2017-11-26T07:38:37.709Z,98207.05
2017-11-26T07:39:42.473Z,98185.67
2017-11-26T07:40:47.185Z,98189.59
2017-11-26T07:41:52.000Z,98191.16
2017-11-26T07:42:57.074Z,98185.09
2017-11-26T07:44:01.855Z,98181.48
2017-11-26T07:45:06.681Z,98199.59
2017-11-26T07:46:11.496Z,98189.13
2017-11-26T07:47:16.487Z,98185.97
2017-11-26T07:48:21.292Z,98188.51
2017-11-26T07:49:26.407Z,98196.19
2017-11-26T07:50:31.153Z,98195.33
2017-11-26T07:51:35.937Z,98191.18
2017-11-26T07:52:40.816Z,98191.64
2017-11-26T07:53:45.594Z,98206.05
2017-11-26T07:54:50.448Z,98222.77
2017-11-26T07:55:55.490Z,98207.24
2017-11-26T07:57:00.109Z,98205.66
2017-11-26T07:58:04.896Z,98203.17
2017-11-26T07:59:09.721Z,98191.94
2017-11-26T08:00:14.636Z,98202.09
2017-11-26T08:01:19.361Z,98201.38
2017-11-26T08:02:24.608Z,98203.70
2017-11-26T08:03:29.363Z,98205.77
2017-11-26T08:04:34.084Z,98195.41
2017-11-26T08:05:38.901Z,98207.80
2017-11-26T08:06:43.627Z,98203.70
2017-11-26T08:07:48.335Z,98207.59
2017-11-26T08:08:54.554Z,98216.86
2017-11-26T08:09:59.266Z,98206.09
2017-11-26T08:11:03.987Z,98220.23
2017-11-26T08:12:08.715Z,98224.84
2017-11-26T08:13:13.449Z,98215.18
2017-11-26T08:14:17.872Z,98209.64
2017-11-26T08:15:22.985Z,98216.59
2017-11-26T08:16:27.713Z,98220.09
2017-11-26T08:17:32.479Z,98207.56
2017-11-26T08:18:37.270Z,98212.38
2017-11-26T08:19:41.976Z,98213.80
2017-11-26T08:20:46.714Z,98213.28
2017-11-26T08:21:51.786Z,98208.74
2017-11-26T08:22:56.535Z,98216.53
2017-11-26T08:24:01.355Z,98220.89
2017-11-26T08:25:06.189Z,98219.97
2017-11-26T08:26:10.943Z,98196.27
2017-11-26T08:27:15.690Z,98223.51
2017-11-26T08:28:20.866Z,98219.02
2017-11-26T08:29:25.648Z,98218.16
2017-11-26T08:30:30.379Z,98218.42
2017-11-26T08:31:35.129Z,98218.09
2017-11-26T08:32:39.881Z,98230.42
2017-11-26T08:33:44.644Z,98219.38
2017-11-26T08:34:49.837Z,98219.48
2017-11-26T08:35:54.645Z,98226.33
2017-11-26T08:36:59.674Z,98224.77
2017-11-26T08:38:04.383Z,98221.80
2017-11-26T08:39:09.062Z,98235.17
2017-11-26T08:40:13.872Z,98231.80
2017-11-26T08:41:19.198Z,98222.38
2017-11-26T08:42:24.109Z,98228.27
2017-11-26T08:43:28.763Z,98228.97
2017-11-26T08:44:33.367Z,98228.19
2017-11-26T08:45:38.017Z,98224.52
2017-11-26T08:46:42.811Z,98222.23
2017-11-26T08:47:48.114Z,98215.54
2017-11-26T08:48:54.178Z,98225.41
2017-11-26T08:49:59.116Z,98224.45
2017-11-26T08:51:04.609Z,98230.58
2017-11-26T08:52:09.394Z,98239.78
2017-11-26T08:53:14.224Z,98232.41
2017-11-26T08:54:19.486Z,98234.01
2017-11-26T08:55:25.203Z,98234.83
2017-11-26T08:56:30.111Z,98240.51
2017-11-26T08:57:35.136Z,98245.14
2017-11-26T08:58:39.970Z,98246.97
2017-11-26T08:59:44.780Z,98241.90
2017-11-26T09:00:50.195Z,98244.50
2017-11-26T09:01:55.006Z,98250.28
2017-11-26T09:02:59.877Z,98240.75
2017-11-26T09:04:04.682Z,98252.39
2017-11-26T09:05:09.481Z,98248.54
2017-11-26T09:06:14.349Z,98250.35
2017-11-26T09:07:19.550Z,98243.88
2017-11-26T09:08:24.429Z,98257.98
2017-11-26T09:09:29.304Z,98252.58
2017-11-26T09:10:34.149Z,98248.70
2017-11-26T09:11:38.980Z,98258.55
2017-11-26T09:12:43.793Z,98259.61
2017-11-26T09:13:49.037Z,98262.86
2017-11-26T09:14:53.925Z,98264.39
2017-11-26T09:15:58.670Z,98257.77
2017-11-26T09:17:03.481Z,98266.75
2017-11-26T09:18:08.288Z,98265.73
2017-11-26T09:19:13.102Z,98263.39
2017-11-26T09:20:18.939Z,98265.38
2017-11-26T09:21:23.804Z,98265.23
2017-11-26T09:22:28.562Z,98274.09
2017-11-26T09:23:33.353Z,98261.55
2017-11-26T09:24:38.169Z,98274.34
2017-11-26T09:25:43.075Z,98278.34
2017-11-26T09:26:48.293Z,98266.92
2017-11-26T09:27:53.090Z,98279.17
2017-11-26T09:28:57.752Z,98262.81
2017-11-26T09:30:02.558Z,98268.14
2017-11-26T09:31:08.031Z,98265.57
2017-11-26T09:32:12.766Z,98275.62
2017-11-26T09:33:18.184Z,98269.91
2017-11-26T09:34:22.950Z,98272.89
2017-11-26T09:35:27.679Z,98269.19
2017-11-26T09:36:32.440Z,98277.25
2017-11-26T09:37:37.241Z,98272.31
2017-11-26T09:38:42.074Z,98271.92
2017-11-26T09:39:47.345Z,98279.48
2017-11-26T09:40:52.253Z,98279.17
2017-11-26T09:41:56.970Z,98272.02
2017-11-26T09:43:01.779Z,98268.22
2017-11-26T09:44:06.529Z,98277.77
2017-11-26T09:45:11.280Z,98279.13
2017-11-26T09:46:16.521Z,98275.35
2017-11-26T09:47:21.353Z,98275.41
2017-11-26T09:48:26.004Z,98281.33
2017-11-26T09:49:30.668Z,98274.86
2017-11-26T09:50:35.438Z,98279.45
2017-11-26T09:51:40.188Z,98278.37
2017-11-26T09:52:45.378Z,98281.75
2017-11-26T09:53:50.199Z,98290.74
2017-11-26T09:54:55.035Z,98291.69
2017-11-26T09:55:59.825Z,98300.06
2017-11-26T09:57:05.243Z,98296.77
2017-11-26T09:58:10.164Z,98287.55
2017-11-26T09:59:15.473Z,98294.94
2017-11-26T10:00:20.290Z,98287.67
2017-11-26T10:01:25.141Z,98287.19
2017-11-26T10:02:30.024Z,98297.02
2017-11-26T10:03:34.814Z,98292.97
2017-11-26T10:04:39.660Z,98293.28
2017-11-26T10:05:44.899Z,98277.81
2017-11-26T10:06:49.682Z,98285.17
2017-11-26T10:07:54.554Z,98293.35
2017-11-26T10:08:59.325Z,98292.76
2017-11-26T10:10:07.477Z,98288.94
2017-11-26T10:11:12.525Z,98285.17
2017-11-26T10:12:17.738Z,98285.03
2017-11-26T10:13:23.024Z,98281.73
2017-11-26T10:14:27.813Z,98282.90
2017-11-26T10:15:32.574Z,98279.22
2017-11-26T10:16:37.404Z,98280.20
2017-11-26T10:17:42.255Z,98285.50
2017-11-26T10:18:47.385Z,98281.52
2017-11-26T10:19:52.205Z,98283.93
2017-11-26T10:20:56.968Z,98273.17
2017-11-26T10:22:01.804Z,98275.59
2017-11-26T10:23:06.582Z,98281.11
2017-11-26T10:24:11.365Z,98268.80
2017-11-26T10:25:16.501Z,98273.78
2017-11-26T10:26:21.332Z,98271.00
2017-11-26T10:27:26.141Z,98284.95
2017-11-26T10:28:30.916Z,98276.45
2017-11-26T10:29:35.728Z,98282.66
2017-11-26T10:30:40.598Z,98266.41
2017-11-26T10:31:45.838Z,98280.45
2017-11-26T10:32:50.649Z,98270.00
2017-11-26T10:33:56.185Z,98272.53
2017-11-26T10:35:00.988Z,98267.58
2017-11-26T10:36:05.856Z,98270.27
2017-11-26T10:37:10.655Z,98276.48
2017-11-26T10:38:15.959Z,98273.63
2017-11-26T10:39:20.783Z,98280.25
2017-11-26T10:40:25.565Z,98279.42
2017-11-26T10:41:30.309Z,98286.98
2017-11-26T10:42:35.076Z,98271.63
2017-11-26T10:43:39.853Z,98274.30
2017-11-26T10:44:44.990Z,98285.02
2017-11-26T10:45:49.736Z,98264.93
2017-11-26T10:46:54.490Z,98268.58
2017-11-26T10:47:59.221Z,98261.66
2017-11-26T10:49:03.934Z,98269.84
2017-11-26T10:50:08.628Z,98262.08
2017-11-26T10:51:13.759Z,98268.19
2017-11-26T10:52:18.523Z,98274.94
2017-11-26T10:53:23.328Z,98274.66
2017-11-26T10:54:28.195Z,98290.38
2017-11-26T10:55:32.931Z,98285.20
2017-11-26T10:56:37.702Z,98277.28
2017-11-26T10:57:42.767Z,98277.38
2017-11-26T10:58:47.581Z,98279.32
2017-11-26T11:15:31.266Z,98288.89
2017-11-26T11:16:36.025Z,98281.38
2017-11-26T11:17:40.835Z,98282.20
2017-11-26T11:18:45.641Z,98278.95
2017-11-26T11:19:50.385Z,98282.65
2017-11-26T11:20:55.474Z,98279.20
2017-11-26T11:22:00.242Z,98293.31
2017-11-26T11:23:05.015Z,98283.86
2017-11-26T11:24:09.698Z,98279.11
2017-11-26T11:25:14.296Z,98282.58
2017-11-26T11:26:18.986Z,98281.03
2017-11-26T11:27:23.997Z,98276.50
2017-11-26T11:28:28.790Z,98284.34
2017-11-26T11:29:33.626Z,98287.05
2017-11-26T11:30:38.423Z,98277.56
2017-11-26T11:31:43.182Z,98277.70
2017-11-26T11:32:47.957Z,98279.71
2017-11-26T11:33:52.987Z,98287.78
2017-11-26T11:34:57.785Z,98275.99
2017-11-26T11:36:02.633Z,98282.16
2017-11-26T11:37:07.417Z,98292.23
2017-11-26T11:38:12.225Z,98280.92
2017-11-26T11:39:16.983Z,98282.73
2017-11-26T11:40:22.080Z,98285.63
2017-11-26T11:41:26.887Z,98284.68
2017-11-26T11:42:32.626Z,98308.80
2017-11-26T11:43:37.398Z,98293.98
2017-11-26T11:44:42.440Z,98297.22
2017-11-26T11:45:47.185Z,98298.55
2017-11-26T11:46:52.246Z,98291.00
2017-11-26T11:47:57.071Z,98292.58
2017-11-26T11:49:01.909Z,98275.16
2017-11-26T11:50:07.274Z,98294.67
2017-11-26T11:51:12.177Z,98285.61
2017-11-26T11:52:17.080Z,98285.33
2017-11-26T11:53:22.364Z,98300.30
2017-11-26T11:54:27.226Z,98292.32
2017-11-26T11:55:32.042Z,98289.75
2017-11-26T11:56:36.803Z,98292.17
2017-11-26T11:57:41.615Z,98288.72
2017-11-26T11:58:46.364Z,98290.22
2017-11-26T11:59:51.205Z,98280.21
2017-11-26T12:00:56.093Z,98281.62
2017-11-26T12:02:00.882Z,98296.92
2017-11-26T12:03:05.896Z,98299.73
2017-11-26T12:04:10.847Z,98291.17
2017-11-26T12:05:16.762Z,98291.96
2017-11-26T12:06:21.625Z,98291.78
2017-11-26T12:07:27.426Z,98299.55
2017-11-26T12:08:32.482Z,98297.17
2017-11-26T12:09:37.297Z,98290.58
2017-11-26T12:10:42.284Z,98294.71
2017-11-26T12:11:47.430Z,98293.97
2017-11-26T12:12:52.404Z,98298.94
2017-11-26T12:13:57.206Z,98287.73
2017-11-26T12:15:02.093Z,98293.65
2017-11-26T12:16:06.872Z,98295.99
2017-11-26T12:17:11.826Z,98301.75
2017-11-26T12:18:16.971Z,98307.16
2017-11-26T12:19:21.775Z,98297.04
2017-11-26T12:20:26.687Z,98298.28
2017-11-26T12:21:31.696Z,98301.86
2017-11-26T12:22:36.525Z,98298.98
2017-11-26T12:23:41.496Z,98309.59
2017-11-26T12:24:46.705Z,98302.17
2017-11-26T12:25:51.562Z,98294.17
2017-11-26T12:26:56.531Z,98305.77
2017-11-26T12:28:01.332Z,98299.80
2017-11-26T12:29:06.217Z,98301.52
2017-11-26T12:30:11.062Z,98302.15
2017-11-26T12:31:16.185Z,98296.81
2017-11-26T12:32:21.070Z,98302.22
2017-11-26T12:33:25.893Z,98303.03
2017-11-26T12:34:30.853Z,98299.68
2017-11-26T12:35:35.755Z,98305.06
2017-11-26T12:36:40.710Z,98304.91
2017-11-26T12:37:45.867Z,98314.89
2017-11-26T12:38:50.655Z,98300.33
2017-11-26T12:39:55.617Z,98296.77
2017-11-26T12:41:00.508Z,98303.59
2017-11-26T12:42:05.366Z,98308.76
2017-11-26T12:43:10.312Z,98315.50
2017-11-26T12:44:15.391Z,98305.83
2017-11-26T12:45:20.158Z,98310.44
2017-11-26T12:46:25.002Z,98299.16
2017-11-26T12:47:29.778Z,98306.47
2017-11-26T12:48:34.539Z,98304.83
2017-11-26T12:49:39.280Z,98308.98
2017-11-26T12:50:44.053Z,98313.14
2017-11-26T12:51:48.797Z,98312.27
2017-11-26T12:52:53.533Z,98314.52
2017-11-26T12:53:58.689Z,98313.41
2017-11-26T12:55:03.437Z,98305.78
2017-11-26T12:56:08.498Z,98307.76
2017-11-26T12:57:13.294Z,98302.48
2017-11-26T12:58:18.124Z,98298.78
2017-11-26T12:59:22.969Z,98299.36
2017-11-26T13:00:27.802Z,98300.50
2017-11-26T13:01:32.631Z,98312.16
2017-11-26T13:02:37.745Z,98317.66
2017-11-26T13:03:42.639Z,98305.82
2017-11-26T13:04:47.524Z,98307.38
2017-11-26T13:05:52.411Z,98309.14
2017-11-26T13:06:57.183Z,98294.11
2017-11-26T13:08:01.968Z,98308.56
2017-11-26T13:09:07.187Z,98309.53
2017-11-26T13:10:12.223Z,98296.97
2017-11-26T13:11:16.998Z,98311.24
2017-11-26T13:12:21.836Z,98300.47
2017-11-26T13:13:26.627Z,98308.88
2017-11-26T13:14:31.315Z,98297.34
2017-11-26T13:15:36.485Z,98301.99
2017-11-26T13:16:41.237Z,98343.70
2017-11-26T13:17:46.140Z,98306.32